Kiyomaru — JK5234 — position and weather

sailwx.info

Track history (hours):
 
Tides and Currents Weather Stations Pressure Air Temp Water Temp Dewpoint Dewpoint Depression Visibility Wind Speed Wind Dir Waves Ship Positions

Kiyomaru

Last reported at 2017-Dec-11 17:00 UTC. Time now 2017-Dec-12 22:00 UTC.
Position N 34°43' E 135°21'.

Length 121 m; draft 4 m.

Type: Cargo ship. MMSI: 431400386.

Date/timePositionNaut miles runAvg speedWind from/ knotsBaromVisibWave heightAir tempDewpointWater temp
2017-Dec-11 17:00N 34°43' E 135°21'0 0.0
2017-Dec-11 16:30N 34°43' E 135°21'0 0.0
2017-Dec-11 16:00N 34°43' E 135°21'0 0.0
2017-Dec-11 15:30N 34°43' E 135°21'0 0.0
2017-Dec-11 15:00N 34°43' E 135°21'0 0.0
2017-Dec-11 14:30N 34°43' E 135°21'0 0.0
2017-Dec-11 14:00N 34°43' E 135°21'0 0.0
2017-Dec-11 13:30N 34°43' E 135°21'0 0.0
2017-Dec-11 13:00N 34°43' E 135°21'0 0.0
2017-Dec-11 12:30N 34°43' E 135°21'0 0.0
2017-Dec-11 12:00N 34°43' E 135°21'0 0.0
2017-Dec-11 11:30N 34°43' E 135°21'0 0.0
2017-Dec-11 11:00N 34°43' E 135°21'0 0.0
2017-Dec-11 10:30N 34°43' E 135°21'0 0.0
2017-Dec-11 10:00N 34°43' E 135°21'0 0.0
2017-Dec-11 09:30N 34°43' E 135°21'0 0.0
2017-Dec-11 09:00N 34°43' E 135°21'0 0.0
2017-Dec-11 08:30N 34°43' E 135°21'0 0.0
2017-Dec-11 08:00N 34°43' E 135°21'0 0.0
2017-Dec-11 07:30N 34°43' E 135°21'0 0.0
2017-Dec-11 07:00N 34°43' E 135°21'0 0.0
2017-Dec-11 06:30N 34°43' E 135°21'0 0.0
2017-Dec-11 06:00N 34°43' E 135°21'0 0.0
2017-Dec-11 05:30N 34°43' E 135°21'0 0.0
2017-Dec-11 05:00N 34°43' E 135°21'0 0.0
2017-Dec-11 04:30N 34°43' E 135°21'2 3.2
2017-Dec-11 04:00N 34°42' E 135°21'4 7.5
2017-Dec-11 03:30N 34°38' E 135°21'3 6.3
2017-Dec-11 03:00N 34°36' E 135°24'2 3.8
2017-Dec-11 02:30N 34°35' E 135°26'0 0.0
2017-Dec-11 02:00N 34°35' E 135°26'0 0.0
2017-Dec-11 01:30N 34°35' E 135°26'0 0.0
2017-Dec-11 01:00N 34°35' E 135°26'0 0.0
2017-Dec-11 00:30N 34°35' E 135°26'0 0.0
2017-Dec-11 00:00N 34°35' E 135°26'2 3.1
2017-Dec-10 23:30N 34°36' E 135°24'4 7.8
2017-Dec-10 23:00N 34°36' E 135°19'4 7.8
2017-Dec-10 22:30N 34°35' E 135°15'5 9.1
2017-Dec-10 22:00N 34°35' E 135°09'5 9.1
2017-Dec-10 21:30N 34°35' E 135°04'5 9.4
2017-Dec-10 21:00N 34°37' E 134°58'5 9.4
2017-Dec-10 20:30N 34°35' E 134°53'4 8.7
2017-Dec-10 20:00N 34°33' E 134°48'4 8.6
2017-Dec-10 19:30N 34°31' E 134°44'4 8.8
2017-Dec-10 19:00N 34°29' E 134°39'4 8.8
2017-Dec-10 18:30N 34°28' E 134°34'4 8.8
2017-Dec-10 18:00N 34°26' E 134°29'5 8.7
2017-Dec-10 17:26N 34°24' E 134°23'4 8.7
2017-Dec-10 17:00N 34°24' E 134°19'5 8.3
2017-Dec-10 16:24N 34°24' E 134°13'3 8.0
2017-Dec-10 15:59N 34°25' E 134°09'1 0.0
2017-Dec-09 09:47N 34°26' E 134°09'4 7.3
2017-Dec-09 09:13N 34°25' E 134°13'2 7.2
2017-Dec-09 08:56N 34°25' E 134°16'3 7.7
2017-Dec-09 08:29N 34°25' E 134°20'4 8.1
2017-Dec-09 08:00N 34°26' E 134°25'4 8.5
2017-Dec-09 07:30N 34°28' E 134°29'4 8.2
2017-Dec-09 07:00N 34°30' E 134°34'4 8.2
2017-Dec-09 06:30N 34°31' E 134°38'4 8.3
2017-Dec-09 06:00N 34°33' E 134°43'5 9.2
2017-Dec-09 05:30N 34°34' E 134°48'5 9.8
2017-Dec-09 05:00N 34°36' E 134°54'5 9.9
2017-Dec-09 04:30N 34°38' E 134°60'510.1
2017-Dec-09 04:00N 34°36' E 135°05'4 8.5
2017-Dec-09 03:30N 34°36' E 135°11'4 8.4
2017-Dec-09 03:00N 34°37' E 135°16'4 8.5
2017-Dec-09 02:30N 34°37' E 135°21'4 8.1
2017-Dec-09 02:00N 34°35' E 135°25'0 0.5
2017-Dec-09 01:30N 34°35' E 135°26'0 0.0
2017-Dec-09 01:00N 34°35' E 135°26'0 0.0
2017-Dec-09 00:30N 34°35' E 135°26'0 0.0
2017-Dec-09 00:00N 34°35' E 135°26'2 3.3
2017-Dec-08 23:30N 34°36' E 135°24'4 7.8
2017-Dec-08 23:00N 34°36' E 135°19'4 8.4
2017-Dec-08 22:30N 34°40' E 135°19'3 6.3
2017-Dec-08 22:01N 34°43' E 135°21'0 0.2
2017-Dec-08 21:30N 34°43' E 135°21'0 0.0
2017-Dec-08 21:00N 34°43' E 135°21'0 0.0
2017-Dec-08 20:30N 34°43' E 135°21'0 0.0
2017-Dec-08 20:00N 34°43' E 135°21'0 0.0
2017-Dec-08 19:30N 34°43' E 135°21'0 0.0
2017-Dec-08 19:00N 34°43' E 135°21'0 0.0
2017-Dec-08 18:30N 34°43' E 135°21'0 0.0
2017-Dec-08 18:00N 34°43' E 135°21'0 0.0
2017-Dec-08 17:30N 34°43' E 135°21'0 0.0
2017-Dec-08 17:00N 34°43' E 135°21'0 0.0
2017-Dec-08 16:30N 34°43' E 135°21'0 0.0
2017-Dec-08 16:00N 34°43' E 135°21'0 0.0
2017-Dec-08 15:30N 34°43' E 135°21'0 0.0
2017-Dec-08 15:00N 34°43' E 135°21'0 0.0
2017-Dec-08 14:30N 34°43' E 135°21'0 0.0
2017-Dec-08 14:00N 34°43' E 135°21'0 0.0
2017-Dec-08 13:30N 34°43' E 135°21'0 0.0
2017-Dec-08 13:00N 34°43' E 135°21'0 0.0
2017-Dec-08 12:30N 34°43' E 135°21'0 0.0
2017-Dec-08 12:00N 34°43' E 135°21'0 0.0
2017-Dec-08 11:30N 34°43' E 135°21'0 0.0
2017-Dec-08 11:00N 34°43' E 135°21'0 0.0
2017-Dec-08 10:30N 34°43' E 135°21'0 0.0
2017-Dec-08 10:00N 34°43' E 135°21'0 0.0
2017-Dec-08 09:30N 34°43' E 135°21'0 0.0
2017-Dec-08 09:00N 34°43' E 135°21'0 0.0
2017-Dec-08 08:30N 34°43' E 135°21'0 0.0
2017-Dec-08 08:00N 34°43' E 135°21'0 0.0
2017-Dec-08 07:30N 34°43' E 135°21'0 0.0
2017-Dec-08 07:00N 34°43' E 135°21'0 0.0
2017-Dec-08 06:30N 34°43' E 135°21'0 0.0
2017-Dec-08 06:00N 34°43' E 135°21'0 0.0
2017-Dec-08 05:30N 34°43' E 135°21'0 0.0
2017-Dec-08 05:00N 34°43' E 135°21'0 0.0
2017-Dec-08 04:30N 34°43' E 135°21'0 0.0
2017-Dec-08 04:00N 34°43' E 135°21'0 0.0
2017-Dec-08 03:30N 34°43' E 135°21'0 0.0
2017-Dec-08 03:00N 34°43' E 135°21'0 0.0
2017-Dec-08 02:30N 34°43' E 135°21'1 1.8
2017-Dec-08 02:00N 34°42' E 135°21'3 6.9
2017-Dec-08 01:30N 34°39' E 135°20'4 8.8
2017-Dec-08 01:00N 34°37' E 135°15'4 8.5
2017-Dec-08 00:30N 34°35' E 135°10'5 9.4
2017-Dec-08 00:00N 34°35' E 135°05'3 6.9
2017-Dec-07 23:30N 34°37' E 135°01'4 7.1
2017-Dec-07 23:00N 34°36' E 134°57'5 9.2
2017-Dec-07 22:30N 34°34' E 134°52'5 9.3
2017-Dec-07 22:00N 34°31' E 134°47'5 9.3
2017-Dec-07 21:30N 34°30' E 134°42'5 9.3
2017-Dec-07 21:00N 34°28' E 134°36'5 9.2
2017-Dec-07 20:30N 34°26' E 134°31'5 9.3
2017-Dec-07 20:00N 34°25' E 134°26'6 9.4
2017-Dec-07 19:25N 34°24' E 134°19'610.1
2017-Dec-07 18:49N 34°24' E 134°12'  
2017-Dec-04 10:30N 34°26' E 134°25'5 9.2
2017-Dec-04 10:00N 34°28' E 134°30'5 9.1
2017-Dec-04 09:30N 34°30' E 134°35'5 9.2
2017-Dec-04 09:00N 34°32' E 134°40'5 9.0
2017-Dec-04 08:30N 34°33' E 134°45'4 8.9
2017-Dec-04 08:00N 34°35' E 134°50'4 8.4
2017-Dec-04 07:30N 34°36' E 134°55'4 7.7
2017-Dec-04 07:00N 34°38' E 134°59'3 6.0
2017-Dec-04 06:30N 34°36' E 135°03'3 5.7
2017-Dec-04 06:00N 34°36' E 135°06'4 8.6
2017-Dec-04 05:30N 34°36' E 135°11'4 8.9
2017-Dec-04 05:00N 34°37' E 135°17'4 8.8
2017-Dec-04 04:30N 34°36' E 135°22'3 6.5
2017-Dec-04 04:00N 34°35' E 135°26'0 0.0
2017-Dec-04 03:30N 34°35' E 135°26'0 0.0
2017-Dec-04 03:00N 34°35' E 135°26'0 0.0
2017-Dec-04 02:30N 34°35' E 135°26'0 0.0
2017-Dec-04 02:00N 34°35' E 135°26'0 0.0
2017-Dec-04 01:30N 34°35' E 135°26'0 0.0
2017-Dec-04 01:00N 34°35' E 135°26'0 0.0
2017-Dec-04 00:30N 34°35' E 135°26'0 0.0
2017-Dec-04 00:00N 34°35' E 135°26'1 2.2
2017-Dec-03 23:30N 34°36' E 135°25'4 7.9
2017-Dec-03 23:00N 34°36' E 135°20'4 8.7
2017-Dec-03 22:30N 34°41' E 135°19'3 5.9
2017-Dec-03 22:00N 34°43' E 135°21'0 0.0
2017-Dec-03 21:30N 34°43' E 135°21'0 0.0
2017-Dec-03 21:00N 34°43' E 135°21'0 0.0
2017-Dec-03 20:30N 34°43' E 135°21'0 0.0
2017-Dec-03 20:00N 34°43' E 135°21'0 0.0
2017-Dec-03 19:30N 34°43' E 135°21'0 0.0
2017-Dec-03 19:00N 34°43' E 135°21'0 0.0
2017-Dec-03 18:30N 34°43' E 135°21'0 0.0
2017-Dec-03 18:00N 34°43' E 135°21'0 0.0
2017-Dec-03 17:30N 34°43' E 135°21'0 0.0
2017-Dec-03 17:00N 34°43' E 135°21'0 0.0
2017-Dec-03 16:30N 34°43' E 135°21'0 0.0
2017-Dec-03 16:00N 34°43' E 135°21'0 0.0
2017-Dec-03 15:30N 34°43' E 135°21'0 0.0
2017-Dec-03 15:00N 34°43' E 135°21'0 0.0
2017-Dec-03 14:30N 34°43' E 135°21'0 0.0
2017-Dec-03 14:00N 34°43' E 135°21'0 0.0
2017-Dec-03 13:30N 34°43' E 135°21'0 0.0
2017-Dec-03 13:00N 34°43' E 135°21'0 0.0
2017-Dec-03 12:30N 34°43' E 135°21'0 0.0
2017-Dec-03 12:00N 34°43' E 135°21'0 0.0
2017-Dec-03 11:30N 34°43' E 135°21'0 0.0
2017-Dec-03 11:00N 34°43' E 135°21'0 0.0
2017-Dec-03 10:30N 34°43' E 135°21'0 0.0
2017-Dec-03 10:00N 34°43' E 135°21'0 0.0
2017-Dec-03 09:30N 34°43' E 135°21'0 0.0
2017-Dec-03 09:00N 34°43' E 135°21'0 0.0
2017-Dec-03 08:30N 34°43' E 135°21'0 0.0
2017-Dec-03 08:00N 34°43' E 135°21'0 0.0
2017-Dec-03 07:30N 34°43' E 135°21'0 0.0
2017-Dec-03 07:00N 34°43' E 135°21'0 0.0
2017-Dec-03 06:30N 34°43' E 135°21'0 0.0
2017-Dec-03 06:00N 34°43' E 135°21'0 0.0
2017-Dec-03 05:30N 34°43' E 135°21'0 0.0
2017-Dec-03 05:00N 34°43' E 135°21'0 0.0
2017-Dec-03 04:30N 34°43' E 135°21'0 0.0
2017-Dec-03 04:00N 34°43' E 135°21'1 2.1
2017-Dec-03 03:30N 34°42' E 135°21'4 8.4
2017-Dec-03 03:00N 34°39' E 135°17'4 8.4
2017-Dec-03 02:30N 34°37' E 135°13'4 8.6
2017-Dec-03 02:00N 34°35' E 135°08'4 8.2
2017-Dec-03 01:30N 34°36' E 135°03'4 7.6
2017-Dec-03 01:00N 34°37' E 134°59'4 9.0
2017-Dec-03 00:30N 34°35' E 134°54'3 6.4
2017-Dec-03 00:00N 34°34' E 134°51'3 6.4
2017-Dec-02 23:30N 34°32' E 134°47'4 7.2
2017-Dec-02 23:00N 34°31' E 134°43'4 8.0
2017-Dec-02 22:30N 34°29' E 134°39'4 8.1
2017-Dec-02 22:00N 34°28' E 134°34'4 8.4
2017-Dec-02 21:30N 34°26' E 134°29'5 8.4
2017-Dec-02 20:55N 34°25' E 134°24'3 8.3
2017-Dec-02 20:30N 34°24' E 134°20'6 8.1
2017-Dec-02 19:45N 34°24' E 134°12'2 8.2
2017-Dec-02 19:27N 34°25' E 134°10'5 0.2
2017-Dec-01 19:53N 34°27' E 134°04'410.1
2017-Dec-01 19:29N 34°26' E 134°08'5 9.7
2017-Dec-01 18:57N 34°24' E 134°14'5 8.9
2017-Dec-01 18:24N 34°25' E 134°20'4 8.4
2017-Dec-01 17:59N 34°26' E 134°24'4 8.5
2017-Dec-01 17:30N 34°28' E 134°29'  
Track history (hours):
 
Tides and Currents Weather Stations Pressure Air Temp Water Temp Dewpoint Dewpoint Depression Visibility Wind Speed Wind Dir Waves Ship Positions

Kiyomaru

Last reported at 2017-Dec-11 17:00 UTC. Time now 2017-Dec-12 22:00 UTC.
Position N 34°43' E 135°21'.

Length 121 m; draft 4 m.

Type: Cargo ship. MMSI: 431400386.

Date/timePositionNaut miles runAvg speedWind from/ knotsBaromVisibWave heightAir tempDewpointWater temp
2017-Dec-11 17:00N 34°43' E 135°21'0 0.0
2017-Dec-11 16:30N 34°43' E 135°21'0 0.0
2017-Dec-11 16:00N 34°43' E 135°21'0 0.0
2017-Dec-11 15:30N 34°43' E 135°21'0 0.0
2017-Dec-11 15:00N 34°43' E 135°21'0 0.0
2017-Dec-11 14:30N 34°43' E 135°21'0 0.0
2017-Dec-11 14:00N 34°43' E 135°21'0 0.0
2017-Dec-11 13:30N 34°43' E 135°21'0 0.0
2017-Dec-11 13:00N 34°43' E 135°21'0 0.0
2017-Dec-11 12:30N 34°43' E 135°21'0 0.0
2017-Dec-11 12:00N 34°43' E 135°21'0 0.0
2017-Dec-11 11:30N 34°43' E 135°21'0 0.0
2017-Dec-11 11:00N 34°43' E 135°21'0 0.0
2017-Dec-11 10:30N 34°43' E 135°21'0 0.0
2017-Dec-11 10:00N 34°43' E 135°21'0 0.0
2017-Dec-11 09:30N 34°43' E 135°21'0 0.0
2017-Dec-11 09:00N 34°43' E 135°21'0 0.0
2017-Dec-11 08:30N 34°43' E 135°21'0 0.0
2017-Dec-11 08:00N 34°43' E 135°21'0 0.0
2017-Dec-11 07:30N 34°43' E 135°21'0 0.0
2017-Dec-11 07:00N 34°43' E 135°21'0 0.0
2017-Dec-11 06:30N 34°43' E 135°21'0 0.0
2017-Dec-11 06:00N 34°43' E 135°21'0 0.0
2017-Dec-11 05:30N 34°43' E 135°21'0 0.0
2017-Dec-11 05:00N 34°43' E 135°21'0 0.0
2017-Dec-11 04:30N 34°43' E 135°21'2 3.2
2017-Dec-11 04:00N 34°42' E 135°21'4 7.5
2017-Dec-11 03:30N 34°38' E 135°21'3 6.3
2017-Dec-11 03:00N 34°36' E 135°24'2 3.8
2017-Dec-11 02:30N 34°35' E 135°26'0 0.0
2017-Dec-11 02:00N 34°35' E 135°26'0 0.0
2017-Dec-11 01:30N 34°35' E 135°26'0 0.0
2017-Dec-11 01:00N 34°35' E 135°26'0 0.0
2017-Dec-11 00:30N 34°35' E 135°26'0 0.0
2017-Dec-11 00:00N 34°35' E 135°26'2 3.1
2017-Dec-10 23:30N 34°36' E 135°24'4 7.8
2017-Dec-10 23:00N 34°36' E 135°19'4 7.8
2017-Dec-10 22:30N 34°35' E 135°15'5 9.1
2017-Dec-10 22:00N 34°35' E 135°09'5 9.1
2017-Dec-10 21:30N 34°35' E 135°04'5 9.4
2017-Dec-10 21:00N 34°37' E 134°58'5 9.4
2017-Dec-10 20:30N 34°35' E 134°53'4 8.7
2017-Dec-10 20:00N 34°33' E 134°48'4 8.6
2017-Dec-10 19:30N 34°31' E 134°44'4 8.8
2017-Dec-10 19:00N 34°29' E 134°39'4 8.8
2017-Dec-10 18:30N 34°28' E 134°34'4 8.8
2017-Dec-10 18:00N 34°26' E 134°29'5 8.7
2017-Dec-10 17:26N 34°24' E 134°23'4 8.7
2017-Dec-10 17:00N 34°24' E 134°19'5 8.3
2017-Dec-10 16:24N 34°24' E 134°13'3 8.0
2017-Dec-10 15:59N 34°25' E 134°09'1 0.0
2017-Dec-09 09:47N 34°26' E 134°09'4 7.3
2017-Dec-09 09:13N 34°25' E 134°13'2 7.2
2017-Dec-09 08:56N 34°25' E 134°16'3 7.7
2017-Dec-09 08:29N 34°25' E 134°20'4 8.1
2017-Dec-09 08:00N 34°26' E 134°25'4 8.5
2017-Dec-09 07:30N 34°28' E 134°29'4 8.2
2017-Dec-09 07:00N 34°30' E 134°34'4 8.2
2017-Dec-09 06:30N 34°31' E 134°38'4 8.3
2017-Dec-09 06:00N 34°33' E 134°43'5 9.2
2017-Dec-09 05:30N 34°34' E 134°48'5 9.8
2017-Dec-09 05:00N 34°36' E 134°54'5 9.9
2017-Dec-09 04:30N 34°38' E 134°60'510.1
2017-Dec-09 04:00N 34°36' E 135°05'4 8.5
2017-Dec-09 03:30N 34°36' E 135°11'4 8.4
2017-Dec-09 03:00N 34°37' E 135°16'4 8.5
2017-Dec-09 02:30N 34°37' E 135°21'4 8.1
2017-Dec-09 02:00N 34°35' E 135°25'0 0.5
2017-Dec-09 01:30N 34°35' E 135°26'0 0.0
2017-Dec-09 01:00N 34°35' E 135°26'0 0.0
2017-Dec-09 00:30N 34°35' E 135°26'0 0.0
2017-Dec-09 00:00N 34°35' E 135°26'2 3.3
2017-Dec-08 23:30N 34°36' E 135°24'4 7.8
2017-Dec-08 23:00N 34°36' E 135°19'4 8.4
2017-Dec-08 22:30N 34°40' E 135°19'3 6.3
2017-Dec-08 22:01N 34°43' E 135°21'0 0.2
2017-Dec-08 21:30N 34°43' E 135°21'0 0.0
2017-Dec-08 21:00N 34°43' E 135°21'0 0.0
2017-Dec-08 20:30N 34°43' E 135°21'0 0.0
2017-Dec-08 20:00N 34°43' E 135°21'0 0.0
2017-Dec-08 19:30N 34°43' E 135°21'0 0.0
2017-Dec-08 19:00N 34°43' E 135°21'0 0.0
2017-Dec-08 18:30N 34°43' E 135°21'0 0.0
2017-Dec-08 18:00N 34°43' E 135°21'0 0.0
2017-Dec-08 17:30N 34°43' E 135°21'0 0.0
2017-Dec-08 17:00N 34°43' E 135°21'0 0.0
2017-Dec-08 16:30N 34°43' E 135°21'0 0.0
2017-Dec-08 16:00N 34°43' E 135°21'0 0.0
2017-Dec-08 15:30N 34°43' E 135°21'0 0.0
2017-Dec-08 15:00N 34°43' E 135°21'0 0.0
2017-Dec-08 14:30N 34°43' E 135°21'0 0.0
2017-Dec-08 14:00N 34°43' E 135°21'0 0.0
2017-Dec-08 13:30N 34°43' E 135°21'0 0.0
2017-Dec-08 13:00N 34°43' E 135°21'0 0.0
2017-Dec-08 12:30N 34°43' E 135°21'0 0.0
2017-Dec-08 12:00N 34°43' E 135°21'0 0.0
2017-Dec-08 11:30N 34°43' E 135°21'0 0.0
2017-Dec-08 11:00N 34°43' E 135°21'0 0.0
2017-Dec-08 10:30N 34°43' E 135°21'0 0.0
2017-Dec-08 10:00N 34°43' E 135°21'0 0.0
2017-Dec-08 09:30N 34°43' E 135°21'0 0.0
2017-Dec-08 09:00N 34°43' E 135°21'0 0.0
2017-Dec-08 08:30N 34°43' E 135°21'0 0.0
2017-Dec-08 08:00N 34°43' E 135°21'0 0.0
2017-Dec-08 07:30N 34°43' E 135°21'0 0.0
2017-Dec-08 07:00N 34°43' E 135°21'0 0.0
2017-Dec-08 06:30N 34°43' E 135°21'0 0.0
2017-Dec-08 06:00N 34°43' E 135°21'0 0.0
2017-Dec-08 05:30N 34°43' E 135°21'0 0.0
2017-Dec-08 05:00N 34°43' E 135°21'0 0.0
2017-Dec-08 04:30N 34°43' E 135°21'0 0.0
2017-Dec-08 04:00N 34°43' E 135°21'0 0.0
2017-Dec-08 03:30N 34°43' E 135°21'0 0.0
2017-Dec-08 03:00N 34°43' E 135°21'0 0.0
2017-Dec-08 02:30N 34°43' E 135°21'1 1.8
2017-Dec-08 02:00N 34°42' E 135°21'3 6.9
2017-Dec-08 01:30N 34°39' E 135°20'4 8.8
2017-Dec-08 01:00N 34°37' E 135°15'4 8.5
2017-Dec-08 00:30N 34°35' E 135°10'5 9.4
2017-Dec-08 00:00N 34°35' E 135°05'3 6.9
2017-Dec-07 23:30N 34°37' E 135°01'4 7.1
2017-Dec-07 23:00N 34°36' E 134°57'5 9.2
2017-Dec-07 22:30N 34°34' E 134°52'5 9.3
2017-Dec-07 22:00N 34°31' E 134°47'5 9.3
2017-Dec-07 21:30N 34°30' E 134°42'5 9.3
2017-Dec-07 21:00N 34°28' E 134°36'5 9.2
2017-Dec-07 20:30N 34°26' E 134°31'5 9.3
2017-Dec-07 20:00N 34°25' E 134°26'6 9.4
2017-Dec-07 19:25N 34°24' E 134°19'610.1
2017-Dec-07 18:49N 34°24' E 134°12'  
2017-Dec-04 10:30N 34°26' E 134°25'5 9.2
2017-Dec-04 10:00N 34°28' E 134°30'5 9.1
2017-Dec-04 09:30N 34°30' E 134°35'5 9.2
2017-Dec-04 09:00N 34°32' E 134°40'5 9.0
2017-Dec-04 08:30N 34°33' E 134°45'4 8.9
2017-Dec-04 08:00N 34°35' E 134°50'4 8.4
2017-Dec-04 07:30N 34°36' E 134°55'4 7.7
2017-Dec-04 07:00N 34°38' E 134°59'3 6.0
2017-Dec-04 06:30N 34°36' E 135°03'3 5.7
2017-Dec-04 06:00N 34°36' E 135°06'4 8.6
2017-Dec-04 05:30N 34°36' E 135°11'4 8.9
2017-Dec-04 05:00N 34°37' E 135°17'4 8.8
2017-Dec-04 04:30N 34°36' E 135°22'3 6.5
2017-Dec-04 04:00N 34°35' E 135°26'0 0.0
2017-Dec-04 03:30N 34°35' E 135°26'0 0.0
2017-Dec-04 03:00N 34°35' E 135°26'0 0.0
2017-Dec-04 02:30N 34°35' E 135°26'0 0.0
2017-Dec-04 02:00N 34°35' E 135°26'0 0.0
2017-Dec-04 01:30N 34°35' E 135°26'0 0.0
2017-Dec-04 01:00N 34°35' E 135°26'0 0.0
2017-Dec-04 00:30N 34°35' E 135°26'0 0.0
2017-Dec-04 00:00N 34°35' E 135°26'1 2.2
2017-Dec-03 23:30N 34°36' E 135°25'4 7.9
2017-Dec-03 23:00N 34°36' E 135°20'4 8.7
2017-Dec-03 22:30N 34°41' E 135°19'3 5.9
2017-Dec-03 22:00N 34°43' E 135°21'0 0.0
2017-Dec-03 21:30N 34°43' E 135°21'0 0.0
2017-Dec-03 21:00N 34°43' E 135°21'0 0.0
2017-Dec-03 20:30N 34°43' E 135°21'0 0.0
2017-Dec-03 20:00N 34°43' E 135°21'0 0.0
2017-Dec-03 19:30N 34°43' E 135°21'0 0.0
2017-Dec-03 19:00N 34°43' E 135°21'0 0.0
2017-Dec-03 18:30N 34°43' E 135°21'0 0.0
2017-Dec-03 18:00N 34°43' E 135°21'0 0.0
2017-Dec-03 17:30N 34°43' E 135°21'0 0.0
2017-Dec-03 17:00N 34°43' E 135°21'0 0.0
2017-Dec-03 16:30N 34°43' E 135°21'0 0.0
2017-Dec-03 16:00N 34°43' E 135°21'0 0.0
2017-Dec-03 15:30N 34°43' E 135°21'0 0.0
2017-Dec-03 15:00N 34°43' E 135°21'0 0.0
2017-Dec-03 14:30N 34°43' E 135°21'0 0.0
2017-Dec-03 14:00N 34°43' E 135°21'0 0.0
2017-Dec-03 13:30N 34°43' E 135°21'0 0.0
2017-Dec-03 13:00N 34°43' E 135°21'0 0.0
2017-Dec-03 12:30N 34°43' E 135°21'0 0.0
2017-Dec-03 12:00N 34°43' E 135°21'0 0.0
2017-Dec-03 11:30N 34°43' E 135°21'0 0.0
2017-Dec-03 11:00N 34°43' E 135°21'0 0.0
2017-Dec-03 10:30N 34°43' E 135°21'0 0.0
2017-Dec-03 10:00N 34°43' E 135°21'0 0.0
2017-Dec-03 09:30N 34°43' E 135°21'0 0.0
2017-Dec-03 09:00N 34°43' E 135°21'0 0.0
2017-Dec-03 08:30N 34°43' E 135°21'0 0.0
2017-Dec-03 08:00N 34°43' E 135°21'0 0.0
2017-Dec-03 07:30N 34°43' E 135°21'0 0.0
2017-Dec-03 07:00N 34°43' E 135°21'0 0.0
2017-Dec-03 06:30N 34°43' E 135°21'0 0.0
2017-Dec-03 06:00N 34°43' E 135°21'0 0.0
2017-Dec-03 05:30N 34°43' E 135°21'0 0.0
2017-Dec-03 05:00N 34°43' E 135°21'0 0.0
2017-Dec-03 04:30N 34°43' E 135°21'0 0.0
2017-Dec-03 04:00N 34°43' E 135°21'1 2.1
2017-Dec-03 03:30N 34°42' E 135°21'4 8.4
2017-Dec-03 03:00N 34°39' E 135°17'4 8.4
2017-Dec-03 02:30N 34°37' E 135°13'4 8.6
2017-Dec-03 02:00N 34°35' E 135°08'4 8.2
2017-Dec-03 01:30N 34°36' E 135°03'4 7.6
2017-Dec-03 01:00N 34°37' E 134°59'4 9.0
2017-Dec-03 00:30N 34°35' E 134°54'3 6.4
2017-Dec-03 00:00N 34°34' E 134°51'3 6.4
2017-Dec-02 23:30N 34°32' E 134°47'4 7.2
2017-Dec-02 23:00N 34°31' E 134°43'4 8.0
2017-Dec-02 22:30N 34°29' E 134°39'4 8.1
2017-Dec-02 22:00N 34°28' E 134°34'4 8.4
2017-Dec-02 21:30N 34°26' E 134°29'5 8.4
2017-Dec-02 20:55N 34°25' E 134°24'3 8.3
2017-Dec-02 20:30N 34°24' E 134°20'6 8.1
2017-Dec-02 19:45N 34°24' E 134°12'2 8.2
2017-Dec-02 19:27N 34°25' E 134°10'5 0.2
2017-Dec-01 19:53N 34°27' E 134°04'410.1
2017-Dec-01 19:29N 34°26' E 134°08'5 9.7
2017-Dec-01 18:57N 34°24' E 134°14'5 8.9
2017-Dec-01 18:24N 34°25' E 134°20'4 8.4
2017-Dec-01 17:59N 34°26' E 134°24'4 8.5
2017-Dec-01 17:30N 34°28' E 134°29'  

Dump ship's entire track history